createdAt,value
2022-12-08T00:01:46.138Z,3.05
2022-12-08T00:04:14.389Z,3.01
2022-12-08T00:07:01.628Z,3.04
2022-12-08T00:09:38.591Z,3.11
2022-12-08T00:12:09.094Z,3.08
2022-12-08T00:14:38.664Z,2.85
2022-12-08T00:17:08.396Z,2.47
2022-12-08T00:19:36.922Z,2.30
2022-12-08T00:22:05.116Z,2.94
2022-12-08T00:24:36.574Z,3.01
2022-12-08T00:27:04.723Z,2.92
2022-12-08T00:29:32.818Z,2.98
2022-12-08T00:32:00.991Z,2.98
2022-12-08T00:34:29.224Z,2.94
2022-12-08T00:36:57.406Z,3.06
2022-12-08T00:39:25.535Z,3.03
2022-12-08T00:42:13.316Z,2.86
2022-12-08T00:44:41.558Z,2.71
2022-12-08T00:47:09.678Z,2.88
2022-12-08T00:49:37.759Z,3.08
2022-12-08T00:52:06.080Z,3.01
2022-12-08T00:54:34.251Z,2.98
2022-12-08T00:57:03.764Z,3.06
2022-12-08T00:59:31.863Z,2.83
2022-12-08T01:02:00.284Z,2.97
2022-12-08T01:04:28.437Z,3.09
2022-12-08T01:06:56.621Z,3.09
2022-12-08T01:09:24.762Z,2.96
2022-12-08T01:11:52.946Z,3.06
2022-12-08T01:14:22.556Z,3.07
2022-12-08T01:16:50.897Z,3.03
2022-12-08T01:19:19.826Z,2.93
2022-12-08T01:21:48.533Z,2.85
2022-12-08T01:24:19.106Z,2.80
2022-12-08T01:26:48.029Z,2.91
2022-12-08T01:29:16.265Z,2.93
2022-12-08T01:31:45.952Z,3.04
2022-12-08T01:34:14.366Z,2.97
2022-12-08T01:36:44.566Z,2.33
2022-12-08T01:39:16.772Z,3.08
2022-12-08T01:41:45.925Z,2.82
2022-12-08T01:44:52.021Z,3.07
2022-12-08T01:47:22.049Z,3.01
2022-12-08T01:49:50.219Z,3.12
2022-12-08T01:52:23.780Z,3.12
2022-12-08T01:54:57.535Z,3.11
2022-12-08T01:57:29.144Z,3.11
2022-12-08T02:00:05.322Z,3.13
2022-12-08T02:02:41.540Z,3.13
2022-12-08T02:05:10.805Z,2.97
2022-12-08T02:07:39.460Z,2.12
2022-12-08T02:10:08.742Z,2.93
2022-12-08T02:12:36.916Z,3.38
2022-12-08T02:15:05.880Z,3.30
2022-12-08T02:17:49.997Z,3.13
2022-12-08T02:20:31.746Z,1.12
2022-12-08T02:23:09.218Z,3.20
2022-12-08T02:25:48.116Z,3.25
2022-12-08T02:28:41.823Z,3.27
2022-12-08T02:31:22.731Z,3.39
2022-12-08T02:34:12.829Z,3.35
2022-12-08T02:36:50.021Z,2.86
2022-12-08T02:39:30.279Z,3.08
2022-12-08T02:42:09.655Z,3.19
2022-12-08T02:44:42.901Z,3.29
2022-12-08T02:47:15.321Z,3.25
2022-12-08T02:49:44.968Z,3.21
2022-12-08T02:52:41.073Z,3.32
2022-12-08T02:55:16.079Z,2.57
2022-12-08T02:57:57.902Z,3.22
2022-12-08T03:00:28.996Z,3.23
2022-12-08T03:03:11.744Z,3.19
2022-12-08T03:05:57.641Z,3.04
2022-12-08T03:08:33.895Z,3.29
2022-12-08T03:11:06.298Z,3.27
2022-12-08T03:13:40.620Z,3.26
2022-12-08T03:16:11.177Z,3.24
2022-12-08T03:18:50.817Z,3.07
2022-12-08T03:21:22.321Z,3.05
2022-12-08T03:23:54.641Z,2.61
2022-12-08T03:26:30.357Z,2.96
2022-12-08T03:28:59.441Z,3.00
2022-12-08T03:31:34.506Z,3.02
2022-12-08T03:34:04.261Z,3.02
2022-12-08T03:36:33.921Z,2.37
2022-12-08T03:39:02.064Z,3.18
2022-12-08T03:41:30.369Z,3.11
2022-12-08T03:44:00.034Z,3.14
2022-12-08T03:48:57.420Z,2.57
2022-12-08T03:51:27.278Z,3.01
2022-12-08T03:53:56.890Z,2.67
2022-12-08T03:56:27.470Z,3.12
2022-12-08T03:58:56.069Z,3.10
2022-12-08T04:01:24.541Z,3.04
2022-12-08T04:03:53.296Z,2.38
2022-12-08T04:06:23.054Z,2.90
2022-12-08T04:08:52.143Z,2.71
2022-12-08T04:11:22.083Z,2.73
2022-12-08T04:13:50.305Z,2.63
2022-12-08T04:16:21.007Z,1.95
2022-12-08T04:18:49.183Z,2.62
2022-12-08T04:21:17.693Z,2.62
2022-12-08T04:23:46.585Z,2.57
2022-12-08T04:26:15.623Z,2.38
2022-12-08T04:28:46.018Z,2.72
2022-12-08T04:31:14.169Z,2.76
2022-12-08T04:33:42.569Z,2.81
2022-12-08T04:36:11.305Z,1.85
2022-12-08T04:38:40.349Z,2.75
2022-12-08T04:41:08.626Z,2.82
2022-12-08T04:43:37.274Z,2.80
2022-12-08T04:46:09.670Z,2.85
2022-12-08T04:48:39.610Z,1.51
2022-12-08T04:51:08.474Z,2.90
2022-12-08T04:53:36.529Z,2.96
2022-12-08T04:56:04.828Z,2.87
2022-12-08T04:58:32.888Z,2.97
2022-12-08T05:01:01.008Z,2.88
2022-12-08T05:03:30.558Z,2.88
2022-12-08T05:06:00.754Z,2.96
2022-12-08T05:08:29.523Z,3.17
2022-12-08T05:11:03.538Z,3.15
2022-12-08T05:13:31.864Z,3.02
2022-12-08T05:16:05.190Z,2.95
2022-12-08T05:18:35.096Z,2.94
2022-12-08T05:21:03.673Z,2.95
2022-12-08T05:23:32.304Z,2.78
2022-12-08T05:26:00.575Z,3.07
2022-12-08T05:28:44.367Z,3.08
2022-12-08T05:31:13.590Z,3.05
2022-12-08T05:33:43.456Z,2.85
2022-12-08T05:36:14.243Z,1.65
2022-12-08T05:38:42.657Z,2.96
2022-12-08T05:41:11.859Z,2.86
2022-12-08T05:43:40.173Z,2.84
2022-12-08T05:46:09.529Z,2.88
2022-12-08T05:48:38.053Z,2.89
2022-12-08T05:51:13.978Z,2.86
2022-12-08T05:53:42.093Z,2.62
2022-12-08T05:56:12.240Z,2.63
2022-12-08T05:58:40.706Z,2.71
2022-12-08T06:01:08.882Z,2.52
2022-12-08T06:03:37.093Z,2.83
2022-12-08T06:06:05.711Z,2.82
2022-12-08T06:08:35.261Z,2.80
2022-12-08T06:11:03.483Z,2.74
2022-12-08T06:13:31.610Z,2.99
2022-12-08T06:16:05.627Z,3.02
2022-12-08T06:18:34.353Z,2.84
2022-12-08T06:21:06.724Z,2.95
2022-12-08T06:23:36.563Z,2.88
2022-12-08T06:26:06.293Z,3.07
2022-12-08T06:28:34.873Z,2.84
2022-12-08T06:31:09.294Z,2.43
2022-12-08T06:33:38.116Z,2.90
2022-12-08T06:36:06.974Z,1.94
2022-12-08T06:38:40.532Z,2.90
2022-12-08T06:41:12.069Z,2.87
2022-12-08T06:43:41.033Z,2.81
2022-12-08T06:46:11.259Z,2.76
2022-12-08T06:48:39.549Z,2.93
2022-12-08T06:51:09.605Z,2.92
2022-12-08T06:53:39.179Z,3.00
2022-12-08T06:56:08.495Z,3.04
2022-12-08T06:58:36.786Z,3.01
2022-12-08T07:01:09.561Z,3.00
2022-12-08T07:03:39.016Z,2.97
2022-12-08T07:06:07.874Z,3.11
2022-12-08T07:08:36.439Z,3.10
2022-12-08T07:11:10.330Z,3.11
2022-12-08T07:13:38.557Z,3.14
2022-12-08T07:16:08.299Z,1.46
2022-12-08T07:18:36.512Z,3.20
2022-12-08T07:21:06.378Z,3.31
2022-12-08T07:23:34.525Z,3.17
2022-12-08T07:26:03.560Z,3.32
2022-12-08T07:28:33.806Z,3.27
2022-12-08T07:31:02.479Z,3.01
2022-12-08T07:33:31.104Z,2.53
2022-12-08T07:36:00.937Z,3.05
2022-12-08T07:38:29.860Z,2.94
2022-12-08T07:40:58.357Z,3.07
2022-12-08T07:43:26.463Z,3.11
2022-12-08T07:45:56.132Z,2.80
2022-12-08T07:48:24.401Z,2.77
2022-12-08T07:50:52.575Z,3.07
2022-12-08T07:53:20.674Z,1.21
2022-12-08T07:55:48.744Z,3.11
2022-12-08T07:58:16.844Z,2.39
2022-12-08T08:00:44.998Z,1.16
2022-12-08T08:03:14.685Z,3.09
2022-12-08T08:05:44.173Z,3.10
2022-12-08T08:08:12.530Z,2.93
2022-12-08T08:10:40.681Z,3.17
2022-12-08T08:13:09.838Z,3.24
2022-12-08T08:15:38.232Z,3.24
2022-12-08T08:18:06.476Z,2.85
2022-12-08T08:20:36.002Z,3.32
2022-12-08T08:23:04.179Z,3.30
2022-12-08T08:25:32.396Z,3.28
2022-12-08T08:28:00.508Z,3.27
2022-12-08T08:30:28.698Z,3.25
2022-12-08T08:32:56.798Z,3.32
2022-12-08T08:35:25.002Z,3.33
2022-12-08T08:37:54.507Z,3.38
2022-12-08T08:40:22.592Z,3.41
2022-12-08T08:42:50.712Z,3.37
2022-12-08T08:45:18.847Z,3.50
2022-12-08T08:47:46.975Z,3.47
2022-12-08T08:50:15.147Z,3.40
2022-12-08T08:52:43.258Z,3.36
2022-12-08T08:55:12.812Z,3.52
2022-12-08T08:57:40.992Z,3.53
2022-12-08T09:00:10.859Z,3.44
2022-12-08T09:02:39.699Z,3.41
2022-12-08T09:05:08.803Z,3.19
2022-12-08T09:07:37.069Z,3.27
2022-12-08T09:10:06.135Z,3.40
2022-12-08T09:12:35.853Z,3.54
2022-12-08T09:15:04.052Z,3.58
2022-12-08T09:17:32.140Z,3.42
2022-12-08T09:20:01.470Z,3.47
2022-12-08T09:22:30.023Z,3.60
2022-12-08T09:24:58.199Z,3.45
2022-12-08T09:27:26.437Z,3.62
2022-12-08T09:29:55.942Z,3.66
2022-12-08T09:32:24.227Z,3.72
2022-12-08T09:34:54.542Z,3.70
2022-12-08T09:37:22.670Z,3.59
2022-12-08T09:39:50.772Z,3.70
2022-12-08T09:42:30.955Z,3.69
2022-12-08T09:45:07.581Z,3.64
2022-12-08T09:47:41.883Z,3.70
2022-12-08T09:50:17.284Z,3.59
2022-12-08T09:52:51.198Z,3.66
2022-12-08T09:55:25.873Z,3.65
2022-12-08T09:58:01.657Z,3.67
2022-12-08T10:00:31.348Z,3.43
2022-12-08T10:03:00.258Z,3.55
2022-12-08T10:05:31.957Z,3.49
2022-12-08T10:08:08.687Z,3.38
2022-12-08T10:10:43.157Z,3.37
2022-12-08T10:13:21.782Z,3.46
2022-12-08T10:16:02.492Z,3.19
2022-12-08T10:18:33.186Z,3.45
2022-12-08T10:21:14.811Z,2.54
2022-12-08T10:23:45.818Z,3.27
2022-12-08T10:26:15.736Z,3.65
2022-12-08T10:28:45.393Z,3.82
2022-12-08T10:31:20.953Z,3.81
2022-12-08T10:34:00.034Z,3.88
2022-12-08T10:36:48.330Z,3.88
2022-12-08T10:39:32.615Z,3.88
2022-12-08T10:42:19.986Z,3.91
2022-12-08T10:44:57.179Z,3.81
2022-12-08T10:47:28.781Z,4.02
2022-12-08T10:50:19.023Z,3.94
2022-12-08T10:52:48.292Z,4.03
2022-12-08T10:55:18.141Z,3.80
2022-12-08T10:57:49.401Z,3.77
2022-12-08T11:00:20.095Z,3.91
2022-12-08T11:02:59.041Z,3.79
2022-12-08T11:05:29.959Z,4.05
2022-12-08T11:07:58.372Z,4.02
2022-12-08T11:10:35.606Z,4.04
2022-12-08T11:13:06.117Z,3.77
2022-12-08T11:15:39.163Z,4.14
2022-12-08T11:18:22.919Z,4.06
2022-12-08T11:20:59.848Z,4.06
2022-12-08T11:23:29.926Z,3.45
2022-12-08T11:26:04.478Z,3.97
2022-12-08T11:28:32.592Z,3.98
2022-12-08T11:31:08.268Z,3.91
2022-12-08T11:33:37.910Z,3.76
2022-12-08T11:36:10.652Z,3.69
2022-12-08T11:38:43.676Z,3.83
2022-12-08T11:41:16.673Z,3.78
2022-12-08T11:43:52.727Z,3.77
2022-12-08T11:46:25.134Z,3.84
2022-12-08T11:49:05.949Z,3.88
2022-12-08T11:51:38.649Z,3.96
2022-12-08T11:54:21.561Z,3.79
2022-12-08T11:56:52.808Z,3.98
2022-12-08T11:59:27.720Z,3.82
2022-12-08T12:01:56.168Z,4.03
2022-12-08T12:04:31.312Z,4.14
2022-12-08T12:07:29.077Z,4.10
2022-12-08T12:10:34.017Z,4.11
2022-12-08T12:13:13.792Z,4.18
2022-12-08T12:16:09.381Z,3.85
2022-12-08T12:18:46.333Z,4.36
2022-12-08T12:21:20.503Z,4.39
2022-12-08T12:23:54.531Z,4.44
2022-12-08T12:26:24.937Z,4.49
2022-12-08T12:28:57.512Z,4.31
2022-12-08T12:31:29.126Z,4.28
2022-12-08T12:34:07.511Z,4.06
2022-12-08T12:36:49.857Z,4.28
2022-12-08T12:39:22.146Z,4.25
2022-12-08T12:41:53.263Z,4.23
2022-12-08T12:44:43.261Z,4.28
2022-12-08T12:47:36.282Z,4.22
2022-12-08T12:50:10.100Z,4.29
2022-12-08T12:52:50.050Z,4.29
2022-12-08T12:55:28.021Z,4.33
2022-12-08T12:57:57.901Z,4.20
2022-12-08T13:00:27.962Z,4.43
2022-12-08T13:02:58.941Z,4.30
2022-12-08T13:05:29.991Z,4.39
2022-12-08T13:08:02.371Z,4.43
2022-12-08T13:10:32.582Z,4.44
2022-12-08T13:13:07.588Z,4.41
2022-12-08T13:15:39.047Z,4.23
2022-12-08T13:18:08.601Z,4.26
2022-12-08T13:20:43.530Z,4.12
2022-12-08T13:23:29.424Z,4.08
2022-12-08T13:26:13.015Z,4.17
2022-12-08T13:29:14.314Z,4.31
2022-12-08T13:31:50.199Z,4.25
2022-12-08T13:34:24.294Z,4.32
2022-12-08T13:37:05.395Z,4.30
2022-12-08T13:39:45.062Z,4.28
2022-12-08T13:42:22.722Z,4.11
2022-12-08T13:48:20.442Z,4.06
2022-12-08T13:54:35.473Z,4.09
2022-12-08T13:59:28.229Z,4.09
2022-12-08T14:01:58.719Z,3.96
2022-12-08T14:04:54.631Z,3.88
2022-12-08T14:07:15.961Z,3.79
2022-12-08T14:09:44.566Z,3.84
2022-12-08T14:12:20.854Z,3.45
2022-12-08T14:15:03.032Z,3.85
2022-12-08T14:17:32.191Z,3.86
2022-12-08T14:20:02.432Z,3.01
2022-12-08T14:22:35.291Z,3.98
2022-12-08T14:25:04.353Z,3.83
2022-12-08T14:27:36.919Z,3.90
2022-12-08T14:30:08.360Z,3.88
2022-12-08T14:32:40.216Z,3.91
2022-12-08T14:35:22.020Z,3.81
2022-12-08T14:37:52.649Z,3.98
2022-12-08T14:40:24.604Z,3.97
2022-12-08T14:43:05.836Z,4.01
2022-12-08T14:45:35.092Z,3.97
2022-12-08T14:48:21.971Z,3.95
2022-12-08T14:51:03.038Z,3.95
2022-12-08T14:53:38.559Z,3.78
2022-12-08T14:56:21.655Z,3.90
2022-12-08T14:59:02.667Z,3.97
2022-12-08T15:01:31.330Z,3.04
2022-12-08T15:04:04.125Z,3.98
2022-12-08T15:06:32.363Z,3.94
2022-12-08T15:09:00.969Z,4.08
2022-12-08T15:11:33.905Z,3.95
2022-12-08T15:14:03.864Z,3.69
2022-12-08T15:16:45.001Z,3.77
2022-12-08T15:19:20.175Z,3.87
2022-12-08T15:21:48.603Z,3.84
2022-12-08T15:24:17.564Z,3.69
2022-12-08T15:26:47.755Z,3.85
2022-12-08T15:29:23.039Z,3.93
2022-12-08T15:31:52.649Z,3.96
2022-12-08T15:34:21.207Z,3.98
2022-12-08T15:36:51.694Z,3.95
2022-12-08T15:39:31.424Z,3.82
2022-12-08T15:42:00.144Z,3.74
2022-12-08T15:44:32.730Z,3.76
2022-12-08T15:47:01.622Z,3.85
2022-12-08T15:49:29.864Z,3.83
2022-12-08T15:52:10.590Z,3.77
2022-12-08T15:54:39.640Z,3.76
2022-12-08T15:57:19.500Z,3.63
2022-12-08T15:59:54.795Z,3.83
2022-12-08T16:02:25.289Z,3.40
2022-12-08T16:05:40.322Z,3.76
2022-12-08T16:07:41.979Z,3.75
2022-12-08T16:10:17.355Z,3.67
2022-12-08T16:16:00.291Z,3.89
2022-12-08T16:18:31.292Z,3.72
2022-12-08T16:23:47.789Z,3.68
2022-12-08T16:26:44.221Z,3.13
2022-12-08T16:29:06.183Z,3.01
2022-12-08T16:31:35.916Z,3.54
2022-12-08T16:34:04.106Z,3.51
2022-12-08T16:36:32.253Z,2.74
2022-12-08T16:39:00.531Z,3.44
2022-12-08T16:41:46.134Z,3.48
2022-12-08T16:44:14.376Z,3.24
2022-12-08T16:46:44.045Z,3.47
2022-12-08T16:49:12.326Z,3.44
2022-12-08T16:51:42.882Z,3.36
2022-12-08T16:54:11.091Z,2.98
2022-12-08T16:56:39.263Z,2.64
2022-12-08T16:59:07.435Z,3.36
2022-12-08T17:01:35.956Z,3.45
2022-12-08T17:06:53.936Z,3.60
2022-12-08T17:09:22.154Z,3.57
2022-12-08T17:11:50.337Z,3.49
2022-12-08T17:14:18.752Z,3.45
2022-12-08T17:16:47.096Z,3.42
2022-12-08T17:19:17.411Z,3.40
2022-12-08T17:21:45.756Z,3.37
2022-12-08T17:24:17.264Z,3.31
2022-12-08T17:26:51.737Z,3.22
2022-12-08T17:29:19.978Z,3.14
2022-12-08T17:31:48.303Z,2.95
2022-12-08T17:34:18.416Z,3.17
2022-12-08T17:36:46.561Z,2.43
2022-12-08T17:39:18.778Z,3.28
2022-12-08T17:41:47.686Z,3.06
2022-12-08T17:44:18.517Z,3.18
2022-12-08T17:46:52.477Z,3.22
2022-12-08T17:49:24.938Z,3.03
2022-12-08T17:51:54.951Z,3.06
2022-12-08T17:54:23.389Z,3.13
2022-12-08T17:56:52.252Z,2.95
2022-12-08T17:59:20.718Z,3.22
2022-12-08T18:01:49.118Z,3.08
2022-12-08T18:04:17.428Z,3.07
2022-12-08T18:06:47.154Z,3.33
2022-12-08T18:09:15.990Z,3.27
2022-12-08T18:11:46.187Z,3.32
2022-12-08T18:14:15.643Z,3.04
2022-12-08T18:16:46.170Z,3.32
2022-12-08T18:19:15.089Z,3.07
2022-12-08T18:21:44.050Z,2.86
2022-12-08T18:24:19.079Z,3.28
2022-12-08T18:26:47.771Z,3.14
2022-12-08T18:29:15.915Z,3.22
2022-12-08T18:31:44.231Z,3.25
2022-12-08T18:34:12.614Z,3.22
2022-12-08T18:36:40.858Z,3.33
2022-12-08T18:39:10.918Z,3.17
2022-12-08T18:41:40.752Z,3.38
2022-12-08T18:44:08.909Z,2.75
2022-12-08T18:46:37.162Z,3.36
2022-12-08T18:49:05.364Z,3.29
2022-12-08T18:51:33.599Z,3.30
2022-12-08T18:54:01.752Z,3.28
2022-12-08T18:56:31.582Z,3.24
2022-12-08T18:59:04.116Z,3.18
2022-12-08T19:01:33.420Z,3.26
2022-12-08T19:06:49.904Z,3.27
2022-12-08T19:09:20.965Z,3.36
2022-12-08T19:11:49.225Z,3.32
2022-12-08T19:14:24.035Z,3.29
2022-12-08T19:16:55.563Z,3.19
2022-12-08T19:19:23.726Z,3.18
2022-12-08T19:21:51.917Z,3.19
2022-12-08T19:24:20.299Z,3.18
2022-12-08T19:26:48.464Z,3.22
2022-12-08T19:29:18.199Z,3.21
2022-12-08T19:31:46.568Z,3.05
2022-12-08T19:34:15.482Z,3.05
2022-12-08T19:36:44.186Z,3.08
2022-12-08T19:39:34.728Z,3.23
2022-12-08T19:42:20.803Z,2.96
2022-12-08T19:44:56.333Z,3.22
2022-12-08T19:47:26.276Z,3.22
2022-12-08T19:50:15.960Z,3.18
2022-12-08T19:52:45.024Z,3.13
2022-12-08T19:55:13.791Z,3.07
2022-12-08T19:57:41.918Z,3.03
2022-12-08T20:00:13.739Z,2.76
2022-12-08T20:02:41.981Z,2.80
2022-12-08T20:05:11.761Z,2.85
2022-12-08T20:07:40.145Z,2.83
2022-12-08T20:10:13.146Z,2.83
2022-12-08T20:12:41.256Z,2.95
2022-12-08T20:15:12.236Z,2.84
2022-12-08T20:17:40.397Z,2.96
2022-12-08T20:20:10.962Z,2.77
2022-12-08T20:22:39.417Z,3.12
2022-12-08T20:25:12.708Z,3.04
2022-12-08T20:27:41.332Z,3.04
2022-12-08T20:30:16.776Z,2.95
2022-12-08T20:32:45.580Z,2.97
2022-12-08T20:35:14.119Z,3.03
2022-12-08T20:37:42.323Z,3.04
2022-12-08T20:40:11.138Z,2.99
2022-12-08T20:42:39.307Z,2.98
2022-12-08T20:45:09.679Z,3.15
2022-12-08T20:47:39.704Z,3.13
2022-12-08T20:50:09.678Z,3.03
2022-12-08T20:52:39.001Z,3.00
2022-12-08T20:55:08.986Z,2.86
2022-12-08T20:57:37.378Z,2.98
2022-12-08T21:00:06.717Z,3.01
2022-12-08T21:02:35.457Z,2.99
2022-12-08T21:05:05.804Z,3.10
2022-12-08T21:07:35.136Z,3.19
2022-12-08T21:10:04.211Z,3.19
2022-12-08T21:12:33.471Z,3.12
2022-12-08T21:15:01.612Z,3.22
2022-12-08T21:17:29.945Z,3.19
2022-12-08T21:19:58.213Z,3.12
2022-12-08T21:22:27.759Z,3.10
2022-12-08T21:24:55.833Z,3.23
2022-12-08T21:27:24.325Z,3.20
2022-12-08T21:29:52.578Z,2.87
2022-12-08T21:32:23.424Z,2.89
2022-12-08T21:34:55.454Z,2.86
2022-12-08T21:37:24.554Z,2.78
2022-12-08T21:39:54.152Z,2.72
2022-12-08T21:42:39.671Z,2.84
2022-12-08T21:45:08.727Z,2.48
2022-12-08T21:47:37.202Z,2.26
2022-12-08T21:50:06.495Z,2.83
2022-12-08T21:52:38.843Z,2.19
2022-12-08T21:55:11.049Z,2.86
2022-12-08T21:57:39.579Z,2.77
2022-12-08T22:00:09.921Z,2.83
2022-12-08T22:02:38.840Z,2.72
2022-12-08T22:05:08.187Z,2.54
2022-12-08T22:07:39.479Z,2.60
2022-12-08T22:10:30.578Z,2.61
2022-12-08T22:12:58.890Z,2.66
2022-12-08T22:15:29.804Z,2.76
2022-12-08T22:17:58.252Z,2.78
2022-12-08T22:20:26.733Z,2.77
2022-12-08T22:22:54.944Z,2.65
2022-12-08T22:25:24.522Z,2.73
2022-12-08T22:27:52.794Z,2.76
2022-12-08T22:30:21.535Z,2.81
2022-12-08T22:32:49.830Z,2.33
2022-12-08T22:35:18.118Z,3.08
2022-12-08T22:37:49.759Z,2.76
2022-12-08T22:40:18.274Z,3.11
2022-12-08T22:42:48.040Z,3.02
2022-12-08T22:45:16.210Z,2.97
2022-12-08T22:47:44.385Z,3.05
2022-12-08T22:50:13.045Z,3.09
2022-12-08T22:52:41.408Z,3.02
2022-12-08T22:55:10.226Z,2.96
2022-12-08T22:57:38.361Z,2.91
2022-12-08T23:00:12.943Z,2.84
2022-12-08T23:02:41.944Z,2.91
2022-12-08T23:05:11.172Z,2.89
2022-12-08T23:07:40.619Z,2.88
2022-12-08T23:10:11.811Z,2.81
2022-12-08T23:12:40.292Z,2.91
2022-12-08T23:15:11.080Z,2.80
2022-12-08T23:17:39.327Z,2.68
2022-12-08T23:20:10.022Z,3.00
2022-12-08T23:22:38.868Z,2.99
2022-12-08T23:25:07.916Z,2.99
2022-12-08T23:27:36.334Z,2.93
2022-12-08T23:30:05.981Z,2.80
2022-12-08T23:32:36.041Z,2.58
2022-12-08T23:35:04.391Z,2.89
2022-12-08T23:37:32.605Z,2.73
2022-12-08T23:40:00.916Z,2.70
2022-12-08T23:42:30.516Z,2.70
2022-12-08T23:44:58.857Z,2.70
2022-12-08T23:47:27.366Z,2.72
2022-12-08T23:49:57.248Z,2.62
2022-12-08T23:52:25.395Z,2.56
2022-12-08T23:54:54.641Z,2.63
2022-12-08T23:57:22.822Z,1.79
2022-12-08T23:59:50.961Z,2.57
